createdAt,value
2018-08-30T00:01:07.999Z,101545.53
2018-08-30T00:03:35.691Z,101554.14
2018-08-30T00:06:03.432Z,101554.41
2018-08-30T00:08:31.232Z,101553.05
2018-08-30T00:10:58.920Z,101555.54
2018-08-30T00:13:26.625Z,101558.49
2018-08-30T00:15:54.328Z,101554.92
2018-08-30T00:18:22.012Z,101553.97
2018-08-30T00:20:49.699Z,101548.48
2018-08-30T00:23:17.559Z,101545.99
2018-08-30T00:25:45.264Z,101546.19
2018-08-30T00:28:12.945Z,101551.74
2018-08-30T00:30:40.668Z,101541.45
2018-08-30T00:33:08.383Z,101546.20
2018-08-30T00:35:36.096Z,101543.28
2018-08-30T00:38:03.874Z,101536.84
2018-08-30T00:40:31.589Z,101533.44
2018-08-30T00:42:59.288Z,101531.39
2018-08-30T00:45:27.169Z,101527.72
2018-08-30T00:47:54.859Z,101535.04
2018-08-30T00:50:22.571Z,101534.44
2018-08-30T00:52:50.282Z,101537.35
2018-08-30T00:55:18.052Z,101538.45
2018-08-30T00:57:45.707Z,101542.58
2018-08-30T01:00:13.437Z,101545.34
2018-08-30T01:02:41.123Z,101549.45
2018-08-30T01:05:08.864Z,101544.20
2018-08-30T01:07:36.976Z,101546.91
2018-08-30T01:10:05.056Z,101550.89
2018-08-30T01:12:32.872Z,101549.95
2018-08-30T01:15:00.544Z,101541.92
2018-08-30T01:17:28.215Z,101543.66
2018-08-30T01:19:55.937Z,101541.92
2018-08-30T01:22:23.755Z,101536.66
2018-08-30T01:24:51.452Z,101545.06
2018-08-30T01:27:19.132Z,101544.72
2018-08-30T01:29:46.831Z,101538.66
2018-08-30T01:32:14.618Z,101534.33
2018-08-30T01:34:42.367Z,101529.06
2018-08-30T01:37:10.165Z,101514.14
2018-08-30T01:39:37.868Z,101517.25
2018-08-30T01:42:05.600Z,101514.18
2018-08-30T01:44:33.307Z,101508.53
2018-08-30T01:47:01.008Z,101510.16
2018-08-30T01:49:28.692Z,101510.58
2018-08-30T01:51:56.391Z,101509.75
2018-08-30T01:54:24.120Z,101506.34
2018-08-30T01:56:51.780Z,101499.36
2018-08-30T01:59:19.448Z,101494.06
2018-08-30T02:01:47.176Z,101494.97
2018-08-30T02:04:14.927Z,101494.31
2018-08-30T02:06:42.592Z,101492.34
2018-08-30T02:09:10.286Z,101492.62
2018-08-30T02:11:37.987Z,101499.08
2018-08-30T02:14:05.677Z,101500.19
2018-08-30T02:16:33.387Z,101497.55
2018-08-30T02:19:01.083Z,101495.83
2018-08-30T02:21:28.767Z,101498.86
2018-08-30T02:23:56.476Z,101503.50
2018-08-30T02:26:24.171Z,101444.24
2018-08-30T02:28:51.868Z,101504.58
2018-08-30T02:31:19.576Z,101504.58
2018-08-30T02:33:47.239Z,101502.94
2018-08-30T02:36:14.998Z,101499.13
2018-08-30T02:38:42.832Z,101496.48
2018-08-30T02:41:10.508Z,101498.27
2018-08-30T02:43:38.208Z,101492.65
2018-08-30T02:46:06.024Z,101489.68
2018-08-30T02:48:33.727Z,101478.67
2018-08-30T02:51:01.407Z,101478.29
2018-08-30T02:53:29.108Z,101476.02
2018-08-30T02:55:56.816Z,101477.34
2018-08-30T02:58:24.497Z,101473.38
2018-08-30T03:00:52.208Z,101465.08
2018-08-30T03:03:19.888Z,101464.42
2018-08-30T03:05:47.635Z,101458.80
2018-08-30T03:08:15.396Z,101458.55
2018-08-30T03:10:43.136Z,101456.45
2018-08-30T03:13:10.920Z,101453.03
2018-08-30T03:15:38.617Z,101452.27
2018-08-30T03:18:06.313Z,101449.23
2018-08-30T03:20:33.996Z,101446.97
2018-08-30T03:23:01.684Z,101443.94
2018-08-30T03:25:29.388Z,101444.23
2018-08-30T03:27:57.079Z,101438.94
2018-08-30T03:30:25.046Z,101432.03
2018-08-30T03:32:52.671Z,101429.45
2018-08-30T03:35:20.377Z,101426.91
2018-08-30T03:37:48.263Z,101434.14
2018-08-30T03:40:15.974Z,101427.63
2018-08-30T03:42:43.680Z,101425.45
2018-08-30T03:45:11.460Z,101428.27
2018-08-30T03:47:39.120Z,101419.59
2018-08-30T03:50:06.852Z,101424.95
2018-08-30T03:52:34.702Z,101423.27
2018-08-30T03:55:02.826Z,101409.30
2018-08-30T03:57:30.474Z,101414.08
2018-08-30T03:59:58.198Z,101412.20
2018-08-30T04:02:25.880Z,101406.08
2018-08-30T04:04:53.624Z,101415.27
2018-08-30T04:07:21.322Z,101406.87
2018-08-30T04:09:49.018Z,101410.78
2018-08-30T04:12:17.011Z,101406.36
2018-08-30T04:14:44.692Z,101406.01
2018-08-30T04:17:12.467Z,101404.33
2018-08-30T04:19:40.215Z,101407.43
2018-08-30T04:22:07.888Z,101406.08
2018-08-30T04:24:35.612Z,101409.08
2018-08-30T04:27:03.349Z,101408.52
2018-08-30T04:29:31.036Z,101409.69
2018-08-30T04:31:59.627Z,101415.20
2018-08-30T04:34:27.312Z,101410.02
2018-08-30T04:36:54.992Z,101412.12
2018-08-30T04:39:22.696Z,101413.30
2018-08-30T04:41:50.394Z,101413.13
2018-08-30T04:44:18.124Z,101411.53
2018-08-30T04:46:45.860Z,101410.70
2018-08-30T04:49:13.558Z,101403.03
2018-08-30T04:51:41.760Z,101405.78
2018-08-30T04:54:09.480Z,101398.30
2018-08-30T04:56:37.162Z,101398.94
2018-08-30T04:59:04.995Z,101403.83
2018-08-30T05:01:32.751Z,101397.88
2018-08-30T05:04:00.504Z,101389.91
2018-08-30T05:06:28.172Z,101391.05
2018-08-30T05:08:55.896Z,101389.98
2018-08-30T05:11:23.625Z,101382.16
2018-08-30T05:13:51.316Z,101385.43
2018-08-30T05:16:19.025Z,101379.86
2018-08-30T05:18:46.713Z,101373.80
2018-08-30T05:21:14.395Z,101370.32
2018-08-30T05:23:42.103Z,101365.59
2018-08-30T05:26:09.788Z,101357.44
2018-08-30T05:28:37.452Z,101355.91
2018-08-30T05:31:05.384Z,101351.77
2018-08-30T05:33:33.091Z,101346.91
2018-08-30T05:36:00.805Z,101345.23
2018-08-30T05:38:28.534Z,101347.56
2018-08-30T05:40:56.231Z,101348.23
2018-08-30T05:43:23.905Z,101342.73
2018-08-30T05:45:51.647Z,101341.78
2018-08-30T05:48:19.390Z,101339.91
2018-08-30T05:50:47.096Z,101339.34
2018-08-30T05:53:14.813Z,101346.99
2018-08-30T05:55:42.548Z,101346.58
2018-08-30T05:58:10.298Z,101347.66
2018-08-30T06:00:38.024Z,101334.51
2018-08-30T06:03:05.773Z,101333.97
2018-08-30T06:05:33.496Z,101333.34
2018-08-30T06:08:01.193Z,101328.47
2018-08-30T06:10:28.992Z,101324.78
2018-08-30T06:12:56.738Z,101319.68
2018-08-30T06:15:24.507Z,101314.64
2018-08-30T06:17:52.235Z,101311.97
2018-08-30T06:20:19.997Z,101310.75
2018-08-30T06:22:47.744Z,101309.28
2018-08-30T06:25:15.536Z,101310.66
2018-08-30T06:27:43.259Z,101310.45
2018-08-30T06:53:34.111Z,101292.25
2018-08-30T06:56:01.848Z,101289.70
2018-08-30T06:58:29.612Z,101289.56
2018-08-30T07:00:57.384Z,101284.41
2018-08-30T07:03:25.130Z,101288.36
2018-08-30T07:05:52.896Z,101291.28
2018-08-30T07:08:20.648Z,101289.44
2018-08-30T07:10:48.391Z,101287.30
2018-08-30T07:13:16.207Z,101291.98
2018-08-30T07:15:44.021Z,101288.52
2018-08-30T07:18:11.771Z,101295.46
2018-08-30T07:20:39.547Z,101293.44
2018-08-30T07:23:07.313Z,101290.63
2018-08-30T07:25:35.095Z,101283.93
2018-08-30T07:28:02.816Z,101285.53
2018-08-30T07:30:30.547Z,101285.61
2018-08-30T07:32:58.352Z,101285.66
2018-08-30T07:35:26.105Z,101284.76
2018-08-30T07:37:53.823Z,101289.31
2018-08-30T07:40:21.581Z,101291.27
2018-08-30T07:42:49.362Z,101289.38
2018-08-30T07:45:17.168Z,101292.22
2018-08-30T07:47:44.913Z,101283.76
2018-08-30T07:50:12.663Z,101294.14
2018-08-30T07:52:40.411Z,101290.60
2018-08-30T07:55:08.169Z,101296.28
2018-08-30T07:57:35.995Z,101293.72
2018-08-30T08:00:04.728Z,101292.34
2018-08-30T08:02:32.490Z,101287.15
2018-08-30T08:05:00.258Z,101286.39
2018-08-30T08:07:28.069Z,101285.81
2018-08-30T08:09:55.816Z,101290.53
2018-08-30T08:12:23.507Z,101288.24
2018-08-30T08:14:51.216Z,101290.82
2018-08-30T08:17:18.945Z,101287.05
2018-08-30T08:19:46.662Z,101285.89
2018-08-30T08:22:14.391Z,101286.25
2018-08-30T08:24:42.179Z,101282.05
2018-08-30T08:27:09.903Z,101281.11
2018-08-30T08:29:37.644Z,101279.27
2018-08-30T08:32:05.447Z,101279.98
2018-08-30T08:34:33.152Z,101274.20
2018-08-30T08:37:00.879Z,101276.12
2018-08-30T08:39:28.728Z,101278.73
2018-08-30T08:41:56.529Z,101277.53
2018-08-30T08:44:24.489Z,101277.25
2018-08-30T08:46:52.298Z,101269.20
2018-08-30T08:49:20.102Z,101269.14
2018-08-30T08:51:47.880Z,101271.72
2018-08-30T08:54:15.675Z,101272.84
2018-08-30T08:56:43.441Z,101265.02
2018-08-30T08:59:11.209Z,101259.15
2018-08-30T09:01:39.164Z,101259.65
2018-08-30T09:04:06.944Z,101257.38
2018-08-30T09:06:34.735Z,101258.84
2018-08-30T09:09:02.675Z,101252.36
2018-08-30T09:11:30.439Z,101251.56
2018-08-30T09:13:58.216Z,101244.66
2018-08-30T09:16:25.975Z,101252.02
2018-08-30T09:18:53.845Z,101245.09
2018-08-30T09:21:21.609Z,101249.25
2018-08-30T09:23:49.417Z,101248.25
2018-08-30T09:26:17.155Z,101245.60
2018-08-30T09:28:44.950Z,101247.22
2018-08-30T09:31:12.724Z,101245.30
2018-08-30T09:33:40.501Z,101247.02
2018-08-30T09:36:08.253Z,101248.39
2018-08-30T09:38:36.022Z,101240.00
2018-08-30T09:41:03.788Z,101241.52
2018-08-30T09:43:31.503Z,101238.13
2018-08-30T09:45:59.221Z,101244.53
2018-08-30T09:48:26.974Z,101249.80
2018-08-30T09:50:54.733Z,101239.92
2018-08-30T09:53:22.478Z,101236.50
2018-08-30T09:55:50.319Z,101240.66
2018-08-30T09:58:18.000Z,101238.69
2018-08-30T10:00:51.305Z,101239.81
2018-08-30T10:03:19.100Z,101244.66
2018-08-30T10:05:46.798Z,101241.75
2018-08-30T10:08:14.535Z,101247.77
2018-08-30T10:10:42.293Z,101246.28
2018-08-30T10:13:10.000Z,101244.03
2018-08-30T10:15:37.728Z,101237.48
2018-08-30T10:18:05.758Z,101230.08
2018-08-30T10:20:33.526Z,101235.59
2018-08-30T10:23:01.227Z,101240.34
2018-08-30T10:25:29.057Z,101236.27
2018-08-30T10:27:56.736Z,101236.83
2018-08-30T10:30:24.442Z,101225.07
2018-08-30T10:32:52.231Z,101232.17
2018-08-30T10:35:19.996Z,101233.55
2018-08-30T10:37:47.721Z,101227.34
2018-08-30T10:40:15.443Z,101226.49
2018-08-30T10:42:43.232Z,101226.72
2018-08-30T10:45:10.953Z,101222.05
2018-08-30T10:47:38.721Z,101227.47
2018-08-30T10:50:06.712Z,101222.80
2018-08-30T10:52:34.468Z,101225.52
2018-08-30T10:55:02.172Z,101221.30
2018-08-30T10:57:29.914Z,101222.42
2018-08-30T10:59:57.668Z,101219.11
2018-08-30T11:02:25.581Z,101221.87
2018-08-30T11:04:53.448Z,101226.48
2018-08-30T11:07:21.328Z,101221.44
2018-08-30T11:09:49.048Z,101219.89
2018-08-30T11:12:16.848Z,101226.20
2018-08-30T11:14:44.578Z,101218.83
2018-08-30T11:19:39.425Z,101219.81
2018-08-30T11:22:07.627Z,101226.02
2018-08-30T11:24:35.379Z,101224.66
2018-08-30T11:27:03.101Z,101214.38
2018-08-30T11:29:30.843Z,101217.90
2018-08-30T11:31:58.555Z,101211.03
2018-08-30T11:34:26.347Z,101215.16
2018-08-30T11:36:54.093Z,101225.39
2018-08-30T11:39:21.807Z,101219.45
2018-08-30T11:41:49.707Z,101220.97
2018-08-30T11:44:17.340Z,101220.97
2018-08-30T11:46:45.061Z,101218.33
2018-08-30T11:49:12.808Z,101221.62
2018-08-30T11:51:40.555Z,101214.73
2018-08-30T11:54:08.297Z,101214.69
2018-08-30T11:56:36.011Z,101221.45
2018-08-30T11:59:03.759Z,101211.38
2018-08-30T12:01:31.526Z,101210.14
2018-08-30T12:03:59.341Z,101204.86
2018-08-30T12:06:27.344Z,101205.12
2018-08-30T12:08:55.444Z,101207.61
2018-08-30T12:11:23.397Z,101206.63
2018-08-30T12:13:51.110Z,101211.73
2018-08-30T12:16:18.833Z,101205.32
2018-08-30T12:18:46.662Z,101208.48
2018-08-30T12:21:14.457Z,101206.73
2018-08-30T12:23:42.204Z,101201.85
2018-08-30T12:26:10.061Z,101204.80
2018-08-30T12:28:38.324Z,101203.70
2018-08-30T12:31:06.165Z,101200.13
2018-08-30T12:33:34.297Z,101208.57
2018-08-30T12:36:02.220Z,101220.77
2018-08-30T12:38:29.822Z,101208.84
2018-08-30T12:40:57.625Z,101204.98
2018-08-30T12:43:25.529Z,101208.64
2018-08-30T12:45:53.228Z,101204.70
2018-08-30T12:48:20.972Z,101211.55
2018-08-30T12:50:48.857Z,101207.22
2018-08-30T12:53:16.568Z,101208.84
2018-08-30T12:55:44.405Z,101199.30
2018-08-30T12:58:12.271Z,101200.48
2018-08-30T13:00:39.916Z,101198.46
2018-08-30T13:03:07.665Z,101197.94
2018-08-30T13:05:35.700Z,101194.19
2018-08-30T13:08:03.303Z,101198.33
2018-08-30T13:10:31.196Z,101194.49
2018-08-30T13:12:58.952Z,101195.70
2018-08-30T13:15:26.878Z,101196.23
2018-08-30T13:17:54.306Z,101199.12
2018-08-30T13:20:22.424Z,101197.80
2018-08-30T13:22:50.260Z,101200.52
2018-08-30T13:25:18.166Z,101198.80
2018-08-30T13:27:45.670Z,101194.41
2018-08-30T13:30:13.792Z,101198.70
2018-08-30T13:32:41.456Z,101194.66
2018-08-30T13:35:09.300Z,101197.64
2018-08-30T13:37:36.931Z,101203.65
2018-08-30T13:40:04.969Z,101203.17
2018-08-30T13:42:32.750Z,101204.27
2018-08-30T13:45:00.662Z,101208.55
2018-08-30T13:47:28.170Z,101212.23
2018-08-30T13:49:55.814Z,101208.56
2018-08-30T13:52:23.952Z,101206.44
2018-08-30T13:54:51.639Z,101216.06
2018-08-30T13:57:19.659Z,101211.65
2018-08-30T13:59:47.430Z,101212.27
2018-08-30T14:02:15.044Z,101214.34
2018-08-30T14:04:42.642Z,101216.06
2018-08-30T14:07:10.393Z,101213.61
2018-08-30T14:09:38.284Z,101203.61
2018-08-30T14:12:06.097Z,101214.61
2018-08-30T14:14:34.060Z,101214.48
2018-08-30T14:17:01.461Z,101220.34
2018-08-30T14:19:29.173Z,101231.20
2018-08-30T14:21:56.960Z,101226.68
2018-08-30T14:24:24.656Z,101234.75
2018-08-30T14:26:52.497Z,101237.67
2018-08-30T14:29:20.291Z,101234.08
2018-08-30T14:31:47.995Z,101239.20
2018-08-30T14:34:15.858Z,101246.88
2018-08-30T14:36:43.562Z,101239.06
2018-08-30T14:39:11.982Z,101247.98
2018-08-30T14:41:40.211Z,101242.47
2018-08-30T14:44:08.140Z,101237.85
2018-08-30T14:46:35.827Z,101245.61
2018-08-30T14:49:03.888Z,101242.77
2018-08-30T14:51:31.828Z,101242.52
2018-08-30T14:53:59.529Z,101248.46
2018-08-30T14:56:27.288Z,101245.53
2018-08-30T14:58:54.996Z,101247.17
2018-08-30T15:01:23.073Z,101254.80
2018-08-30T15:03:50.820Z,101249.00
2018-08-30T15:06:18.588Z,101249.42
2018-08-30T15:08:46.415Z,101260.80
2018-08-30T15:11:14.095Z,101260.60
2018-08-30T15:13:41.871Z,101267.05
2018-08-30T15:16:10.055Z,101274.52
2018-08-30T15:18:37.797Z,101292.06
2018-08-30T15:21:05.584Z,101294.72
2018-08-30T15:23:33.346Z,101312.05
2018-08-30T15:26:01.072Z,101320.86
2018-08-30T15:28:28.820Z,101322.33
2018-08-30T15:30:56.614Z,101329.58
2018-08-30T15:33:24.319Z,101341.30
2018-08-30T15:35:52.315Z,101352.82
2018-08-30T15:38:20.058Z,101348.45
2018-08-30T15:40:47.813Z,101348.91
2018-08-30T15:43:15.492Z,101358.45
2018-08-30T15:45:43.217Z,101352.41
2018-08-30T15:48:11.022Z,101338.09
2018-08-30T15:50:38.816Z,101350.97
2018-08-30T15:53:06.588Z,101354.56
2018-08-30T15:55:34.349Z,101350.41
2018-08-30T15:58:02.137Z,101345.90
2018-08-30T16:00:29.886Z,101354.16
2018-08-30T16:02:57.664Z,101356.73
2018-08-30T16:05:25.441Z,101357.38
2018-08-30T16:07:53.231Z,101355.75
2018-08-30T16:10:21.004Z,101364.75
2018-08-30T16:12:48.778Z,101366.41
2018-08-30T16:15:16.552Z,101368.45
2018-08-30T16:17:44.328Z,101367.36
2018-08-30T16:20:12.203Z,101372.11
2018-08-30T16:23:07.788Z,101370.84
2018-08-30T16:25:35.925Z,101373.05
2018-08-30T16:28:04.308Z,101373.50
2018-08-30T16:30:32.125Z,101377.13
2018-08-30T16:32:59.786Z,101379.89
2018-08-30T16:35:27.804Z,101384.36
2018-08-30T16:37:55.940Z,101383.97
2018-08-30T16:40:23.639Z,101389.72
2018-08-30T16:42:51.384Z,101400.03
2018-08-30T16:45:19.159Z,101401.66
2018-08-30T16:47:46.921Z,101400.91
2018-08-30T16:50:14.619Z,101404.20
2018-08-30T16:52:42.831Z,101404.86
2018-08-30T16:55:10.528Z,101405.03
2018-08-30T16:57:38.298Z,101415.45
2018-08-30T17:00:06.112Z,101409.19
2018-08-30T17:02:33.940Z,101420.34
2018-08-30T17:05:01.649Z,101422.06
2018-08-30T17:07:29.479Z,101424.95
2018-08-30T17:09:57.180Z,101422.52
2018-08-30T17:12:24.984Z,101430.77
2018-08-30T17:14:52.783Z,101433.91
2018-08-30T17:17:20.561Z,101436.16
2018-08-30T17:19:48.321Z,101442.33
2018-08-30T17:22:16.092Z,101441.55
2018-08-30T17:24:43.792Z,101432.91
2018-08-30T17:27:11.483Z,101438.48
2018-08-30T17:29:39.185Z,101434.95
2018-08-30T17:32:06.889Z,101446.34
2018-08-30T17:34:34.824Z,101445.22
2018-08-30T17:37:02.650Z,101447.66
2018-08-30T17:39:30.396Z,101449.52
2018-08-30T17:41:58.128Z,101452.17
2018-08-30T17:44:25.821Z,101451.40
2018-08-30T17:46:53.540Z,101456.01
2018-08-30T17:49:21.260Z,101454.83
2018-08-30T17:51:49.125Z,101455.75
2018-08-30T17:54:16.790Z,101466.55
2018-08-30T17:56:44.492Z,101461.38
2018-08-30T17:59:12.252Z,101463.22
2018-08-30T18:01:40.052Z,101474.83
2018-08-30T18:04:07.761Z,101470.64
2018-08-30T18:06:35.440Z,101473.53
2018-08-30T18:09:03.479Z,101472.49
2018-08-30T18:11:31.313Z,101468.09
2018-08-30T18:13:58.888Z,101476.55
2018-08-30T18:16:26.604Z,101483.28
2018-08-30T18:18:54.295Z,101481.00
2018-08-30T18:21:21.973Z,101485.95
2018-08-30T18:23:49.820Z,101484.21
2018-08-30T18:26:17.598Z,101483.02
2018-08-30T18:28:45.288Z,101487.53
2018-08-30T18:31:13.019Z,101491.80
2018-08-30T18:33:40.708Z,101488.77
2018-08-30T18:36:08.453Z,101485.70
2018-08-30T18:38:36.254Z,101491.54
2018-08-30T18:41:03.962Z,101499.66
2018-08-30T18:43:31.776Z,101494.16
2018-08-30T18:45:59.547Z,101508.16
2018-08-30T18:48:27.232Z,101503.34
2018-08-30T18:50:54.921Z,101506.00
2018-08-30T18:53:22.712Z,101503.43
2018-08-30T18:55:50.433Z,101495.69
2018-08-30T18:58:18.164Z,101501.70
2018-08-30T19:00:45.874Z,101502.62
2018-08-30T19:03:13.657Z,101501.02
2018-08-30T19:05:41.353Z,101498.58
2018-08-30T19:08:09.062Z,101502.23
2018-08-30T19:10:36.944Z,101510.73
2018-08-30T19:13:04.657Z,101505.63
2018-08-30T19:15:38.052Z,101510.08
2018-08-30T19:18:11.249Z,101514.12
2018-08-30T19:20:39.057Z,101513.20
2018-08-30T19:23:06.715Z,101516.86
2018-08-30T19:25:34.435Z,101509.39
2018-08-30T19:28:02.115Z,101514.44
2018-08-30T19:30:31.220Z,101516.72
2018-08-30T19:33:00.444Z,101524.28
2018-08-30T19:35:33.732Z,101526.20
2018-08-30T19:38:01.484Z,101531.61
2018-08-30T19:40:34.667Z,101528.99
2018-08-30T19:43:02.367Z,101526.41
2018-08-30T19:45:30.560Z,101526.92
2018-08-30T19:47:58.744Z,101535.44
2018-08-30T19:50:27.124Z,101537.28
2018-08-30T19:52:54.847Z,101537.78
2018-08-30T19:55:22.628Z,101538.33
2018-08-30T19:57:50.324Z,101536.30
2018-08-30T20:00:18.021Z,101547.39
2018-08-30T20:02:45.764Z,101547.39
2018-08-30T20:05:13.493Z,101550.59
2018-08-30T20:07:41.323Z,101548.44
2018-08-30T20:10:09.030Z,101548.19
2018-08-30T20:12:36.761Z,101546.58
2018-08-30T20:15:04.726Z,101554.21
2018-08-30T20:17:32.417Z,101556.50
2018-08-30T20:20:00.131Z,101561.48
2018-08-30T20:22:27.932Z,101560.23
2018-08-30T20:24:55.633Z,101555.50
2018-08-30T20:27:23.312Z,101554.88
2018-08-30T20:29:51.048Z,101557.25
2018-08-30T20:32:18.740Z,101566.38
2018-08-30T20:34:46.504Z,101563.09
2018-08-30T20:37:14.222Z,101573.30
2018-08-30T20:39:41.963Z,101566.32
2018-08-30T20:42:09.656Z,101566.86
2018-08-30T20:44:37.332Z,101569.14
2018-08-30T20:47:05.093Z,101573.66
2018-08-30T20:49:32.845Z,101572.41
2018-08-30T20:52:00.544Z,101578.30
2018-08-30T20:54:28.271Z,101584.67
2018-08-30T20:56:56.048Z,101578.98
2018-08-30T20:59:23.732Z,101579.48
2018-08-30T21:01:51.498Z,101582.59
2018-08-30T21:04:19.226Z,101592.38
2018-08-30T21:06:46.947Z,101600.42
2018-08-30T21:09:14.656Z,101591.70
2018-08-30T21:11:42.386Z,101591.32
2018-08-30T21:14:10.072Z,101591.81
2018-08-30T21:16:37.803Z,101593.27
2018-08-30T21:19:05.532Z,101585.83
2018-08-30T21:21:33.255Z,101591.36
2018-08-30T21:24:00.959Z,101583.22
2018-08-30T21:26:28.672Z,101589.96
2018-08-30T21:28:56.375Z,101590.00
2018-08-30T21:31:24.119Z,101595.38
2018-08-30T21:33:51.811Z,101606.48
2018-08-30T21:36:19.496Z,101603.45
2018-08-30T21:38:47.241Z,101607.43
2018-08-30T21:41:14.933Z,101602.16
2018-08-30T21:43:42.633Z,101604.40
2018-08-30T21:46:10.515Z,101600.91
2018-08-30T21:48:38.200Z,101606.22
2018-08-30T21:51:05.931Z,101616.34
2018-08-30T21:53:33.729Z,101613.69
2018-08-30T21:56:01.688Z,101610.20
2018-08-30T21:58:29.360Z,101627.38
2018-08-30T22:00:57.127Z,101622.48
2018-08-30T22:03:24.827Z,101622.59
2018-08-30T22:05:52.578Z,101624.78
2018-08-30T22:08:20.280Z,101626.16
2018-08-30T22:10:47.990Z,101627.52
2018-08-30T22:13:15.751Z,101633.34
2018-08-30T22:15:43.433Z,101632.58
2018-08-30T22:18:11.119Z,101632.28
2018-08-30T22:20:38.818Z,101629.38
2018-08-30T22:23:06.568Z,101637.03
2018-08-30T22:25:34.312Z,101637.13
2018-08-30T22:28:01.992Z,101638.67
2018-08-30T22:30:29.687Z,101633.44
2018-08-30T22:32:57.356Z,101635.77
2018-08-30T22:35:25.040Z,101639.05
2018-08-30T22:37:52.768Z,101633.89
2018-08-30T22:40:20.479Z,101635.35
2018-08-30T22:42:48.156Z,101633.74
2018-08-30T22:45:15.861Z,101632.59
2018-08-30T22:47:43.532Z,101631.92
2018-08-30T22:50:11.224Z,101638.36
2018-08-30T22:52:38.916Z,101645.21
2018-08-30T22:55:06.671Z,101642.34
2018-08-30T22:57:34.369Z,101639.04
2018-08-30T23:00:02.080Z,101642.73
2018-08-30T23:02:29.839Z,101642.05
2018-08-30T23:04:57.511Z,101638.23
2018-08-30T23:07:25.205Z,101641.39
2018-08-30T23:09:52.955Z,101642.84
2018-08-30T23:12:20.627Z,101643.44
2018-08-30T23:14:48.314Z,101644.80
2018-08-30T23:17:16.064Z,101646.13
2018-08-30T23:19:43.844Z,101646.21
2018-08-30T23:22:11.545Z,101651.93
2018-08-30T23:24:39.232Z,101658.13
2018-08-30T23:27:06.939Z,101655.45
2018-08-30T23:29:34.637Z,101662.49
2018-08-30T23:32:02.734Z,101663.72
2018-08-30T23:34:30.609Z,101670.25
2018-08-30T23:36:58.326Z,101671.06
2018-08-30T23:39:25.999Z,101678.91
2018-08-30T23:41:53.740Z,101678.79
2018-08-30T23:44:21.417Z,101678.25
2018-08-30T23:46:49.115Z,101681.23
2018-08-30T23:49:16.804Z,101680.64
2018-08-30T23:51:44.525Z,101681.03
2018-08-30T23:54:12.218Z,101683.08
2018-08-30T23:56:39.924Z,101683.41
